createdAt,value
2022-10-27T06:18:20.686Z,11.40
2022-10-27T06:21:11.727Z,11.67
2022-10-27T06:24:00.150Z,12.70
2022-10-27T06:26:51.950Z,11.53
2022-10-27T06:29:42.973Z,11.97
2022-10-27T06:32:35.121Z,11.80
2022-10-27T06:35:27.298Z,11.67
2022-10-27T06:38:17.000Z,11.53
2022-10-27T06:41:08.360Z,10.57
2022-10-27T06:43:56.773Z,11.27
2022-10-27T06:46:44.971Z,10.70
2022-10-27T06:49:33.154Z,10.70
2022-10-27T06:52:23.850Z,11.40
2022-10-27T06:55:12.293Z,10.00
2022-10-27T06:58:00.537Z,9.47
2022-10-27T07:00:48.956Z,10.87
2022-10-27T07:03:38.105Z,10.50
2022-10-27T07:06:27.830Z,9.53
2022-10-27T07:09:17.658Z,9.50
2022-10-27T07:12:06.885Z,10.27
2022-10-27T07:14:55.213Z,9.80
2022-10-27T07:17:44.119Z,10.30
2022-10-27T07:20:33.632Z,9.13
2022-10-27T07:23:22.130Z,9.13
2022-10-27T07:26:11.842Z,10.03
2022-10-27T07:29:00.002Z,9.27
2022-10-27T07:31:48.996Z,9.90
2022-10-27T07:34:37.732Z,9.30
2022-10-27T08:16:11.411Z,8.33
2022-10-27T08:22:41.622Z,7.43
2022-10-27T08:25:30.786Z,6.70
2022-10-27T08:28:19.453Z,7.20
2022-10-27T08:31:08.043Z,6.10
2022-10-27T08:33:56.253Z,8.13
2022-10-27T08:36:44.528Z,6.80
2022-10-27T08:39:34.123Z,8.37
2022-10-27T08:42:37.653Z,6.47
2022-10-27T08:45:31.029Z,6.40
2022-10-27T08:48:25.054Z,5.57
2022-10-27T08:51:17.174Z,6.60
2022-10-27T08:54:10.796Z,6.70
2022-10-27T08:57:04.508Z,5.40
2022-10-27T08:59:57.024Z,5.43
2022-10-27T09:03:11.077Z,6.47
2022-10-27T09:06:07.508Z,5.30
2022-10-27T09:09:05.000Z,7.60
2022-10-27T09:12:06.763Z,5.20
2022-10-27T09:15:10.988Z,5.80
2022-10-27T09:18:06.118Z,5.30
2022-10-27T09:20:57.634Z,5.80
2022-10-27T09:23:51.914Z,5.40
2022-10-27T09:26:43.287Z,6.33
2022-10-27T09:29:36.444Z,5.93
2022-10-27T09:32:27.555Z,5.83
2022-10-27T09:35:23.641Z,5.23
2022-10-27T09:38:16.453Z,5.70
2022-10-27T09:41:08.361Z,5.83
2022-10-27T09:43:58.792Z,5.53
2022-10-27T09:46:51.703Z,6.23
2022-10-27T09:49:44.715Z,6.60
2022-10-27T09:52:37.189Z,5.73
2022-10-27T09:55:46.863Z,5.50
2022-10-27T09:58:49.434Z,6.10
2022-10-27T10:01:57.450Z,6.17
2022-10-27T10:04:47.895Z,6.50
2022-10-27T10:07:38.411Z,4.97
2022-10-27T10:10:30.283Z,5.00
2022-10-27T10:13:20.695Z,5.30
2022-10-27T10:16:16.333Z,4.13
2022-10-27T10:19:13.286Z,5.07
2022-10-27T10:22:03.201Z,5.40
2022-10-27T10:24:52.594Z,4.53
2022-10-27T10:27:42.869Z,4.90
2022-10-27T10:30:35.715Z,5.80
2022-10-27T10:33:26.587Z,5.50
2022-10-27T10:36:29.403Z,4.53
2022-10-27T10:39:31.560Z,5.37
2022-10-27T10:42:20.637Z,5.10
2022-10-27T10:45:18.922Z,5.20
2022-10-27T10:48:22.059Z,5.13
2022-10-27T10:51:12.673Z,4.23
2022-10-27T10:54:07.065Z,4.90
2022-10-27T10:56:57.112Z,4.67
2022-10-27T10:59:46.549Z,5.13
2022-10-27T11:02:36.085Z,4.63
2022-10-27T11:05:26.671Z,4.47
2022-10-27T11:08:22.247Z,4.10
2022-10-27T11:11:18.184Z,3.20
2022-10-27T11:14:12.894Z,4.30
2022-10-27T11:17:04.521Z,4.70
2022-10-27T11:19:57.206Z,3.43
2022-10-27T11:25:38.088Z,4.83
2022-10-27T11:28:36.156Z,4.07
2022-10-27T11:31:30.062Z,3.40
2022-10-27T11:34:29.634Z,3.60
2022-10-27T11:37:26.202Z,3.47
2022-10-27T11:40:21.907Z,3.67
2022-10-27T11:43:17.843Z,4.83
2022-10-27T11:46:13.389Z,3.10
2022-10-27T11:49:09.879Z,3.80
2022-10-27T11:52:05.453Z,6.03
2022-10-27T11:54:54.688Z,4.17
2022-10-27T11:57:48.910Z,3.53
2022-10-27T12:00:57.691Z,3.20
2022-10-27T12:03:59.753Z,2.97
2022-10-27T12:06:56.893Z,3.63
2022-10-27T12:10:00.537Z,3.53
2022-10-27T12:12:57.483Z,3.20
2022-10-27T12:15:52.325Z,3.27
2022-10-27T12:18:49.417Z,3.10
2022-10-27T12:21:44.842Z,4.20
2022-10-27T12:24:39.317Z,3.70
2022-10-27T12:27:33.344Z,3.40
2022-10-27T12:30:26.487Z,2.80
2022-10-27T12:33:22.387Z,3.10
2022-10-27T12:36:18.846Z,3.60
2022-10-27T12:39:20.290Z,2.80
2022-10-27T12:42:14.338Z,2.63
2022-10-27T12:45:09.951Z,2.40
2022-10-27T12:48:07.996Z,2.67
2022-10-27T12:51:08.110Z,2.73
2022-10-27T12:54:04.524Z,3.77
2022-10-27T12:57:05.802Z,2.60
2022-10-27T13:00:06.177Z,3.10
2022-10-27T13:03:38.407Z,2.60
2022-10-27T13:06:54.586Z,2.50
2022-10-27T13:10:19.871Z,2.70
2022-10-27T13:13:32.863Z,3.13
2022-10-27T13:16:32.666Z,2.90
2022-10-27T13:19:39.349Z,3.03
2022-10-27T13:22:38.631Z,3.00
2022-10-27T13:25:35.950Z,2.90
2022-10-27T13:28:31.996Z,2.50
2022-10-27T13:31:24.089Z,2.87
2022-10-27T13:34:20.625Z,3.30
2022-10-27T13:37:40.793Z,3.10
2022-10-27T13:40:39.149Z,2.70
2022-10-27T13:44:02.004Z,2.67
2022-10-27T13:47:15.441Z,2.83
2022-10-27T13:50:05.156Z,2.83
2022-10-27T13:53:26.269Z,2.50
2022-10-27T13:56:39.777Z,2.70
2022-10-27T14:02:32.445Z,2.63
2022-10-27T14:05:32.760Z,2.30
2022-10-27T14:08:25.255Z,2.77
2022-10-27T14:11:19.877Z,2.40
2022-10-27T14:14:19.295Z,2.63
2022-10-27T14:17:17.456Z,2.40
2022-10-27T14:20:10.456Z,2.20
2022-10-27T14:23:08.990Z,2.60
2022-10-27T14:25:57.323Z,2.93
2022-10-27T14:28:51.356Z,2.80
2022-10-27T14:31:40.569Z,3.20
2022-10-27T14:34:30.374Z,3.33
2022-10-27T14:37:23.610Z,2.63
2022-10-27T14:40:19.525Z,2.60
2022-10-27T14:43:19.038Z,2.57
2022-10-27T14:46:07.574Z,2.93
2022-10-27T14:49:02.350Z,2.67
2022-10-27T14:51:55.394Z,3.97
2022-10-27T14:54:50.076Z,2.60
2022-10-27T14:57:39.213Z,2.67
2022-10-27T15:00:29.442Z,3.00
2022-10-27T15:03:17.790Z,2.60
2022-10-27T15:06:07.439Z,2.70
2022-10-27T15:08:58.568Z,3.40
2022-10-27T15:11:48.211Z,2.60
2022-10-27T15:14:40.762Z,2.63
2022-10-27T15:17:34.124Z,3.07
2022-10-27T15:20:22.727Z,3.60
2022-10-27T15:23:14.085Z,2.73
2022-10-27T15:26:04.629Z,3.40
2022-10-27T15:28:54.885Z,3.60
2022-10-27T15:31:46.180Z,3.83
2022-10-27T15:34:37.918Z,3.50
2022-10-27T15:37:35.103Z,3.47
2022-10-27T15:40:41.322Z,3.80
2022-10-27T15:43:32.210Z,3.90
2022-10-27T15:46:32.969Z,3.80
2022-10-27T15:49:29.630Z,4.20
2022-10-27T15:52:22.705Z,3.63
2022-10-27T15:55:23.070Z,3.90
2022-10-27T15:58:34.161Z,3.43
2022-10-27T16:01:34.251Z,3.93
2022-10-27T16:04:31.561Z,4.03
2022-10-27T16:07:32.347Z,4.37
2022-10-27T16:10:21.124Z,4.60
2022-10-27T16:13:12.923Z,4.30
2022-10-27T16:16:02.892Z,4.07
2022-10-27T16:18:53.309Z,4.40
2022-10-27T16:21:44.749Z,4.60
2022-10-27T16:24:33.311Z,4.20
2022-10-27T16:27:25.104Z,4.60
2022-10-27T16:30:18.242Z,4.93
2022-10-27T16:33:10.307Z,4.07
2022-10-27T16:36:00.134Z,4.13
2022-10-27T16:38:49.507Z,4.20
2022-10-27T16:41:40.127Z,5.30
2022-10-27T16:44:28.781Z,5.77
2022-10-27T16:47:21.152Z,5.97
2022-10-27T16:50:12.279Z,6.00
2022-10-27T16:53:02.539Z,6.47
2022-10-27T16:55:58.509Z,7.40
2022-10-27T16:58:47.735Z,7.00
2022-10-27T17:01:36.214Z,5.77
2022-10-27T17:04:25.216Z,6.13
2022-10-27T17:07:15.069Z,7.00
2022-10-27T17:10:04.887Z,7.40
2022-10-27T17:12:54.452Z,6.10
2022-10-27T17:15:46.701Z,6.53
2022-10-27T17:18:39.080Z,7.13
2022-10-27T17:21:30.576Z,7.87
2022-10-27T17:24:21.113Z,8.07
2022-10-27T17:27:10.144Z,8.90
2022-10-27T17:29:59.137Z,8.53
2022-10-27T17:32:49.195Z,9.40
2022-10-27T17:35:38.200Z,8.23
2022-10-27T17:38:26.848Z,8.33
2022-10-27T17:41:17.496Z,7.83
2022-10-27T17:44:06.378Z,7.93
2022-10-27T17:46:54.846Z,14.33
2022-10-27T17:49:43.342Z,8.70
2022-10-27T17:52:33.407Z,9.13
2022-10-27T17:55:22.005Z,7.63
2022-10-27T17:58:12.453Z,7.80
2022-10-27T18:01:06.521Z,8.47
2022-10-27T18:03:58.163Z,8.10
2022-10-27T18:06:47.218Z,8.37
2022-10-27T18:09:37.166Z,8.20
2022-10-27T18:12:26.046Z,8.07
2022-10-27T18:15:34.870Z,7.77
2022-10-27T18:18:24.004Z,8.10
2022-10-27T18:21:15.685Z,8.70
2022-10-27T18:24:05.104Z,9.00
2022-10-27T18:26:54.541Z,7.93
2022-10-27T18:29:43.749Z,8.00
2022-10-27T18:32:33.732Z,8.20
2022-10-27T18:35:22.459Z,7.23
2022-10-27T18:38:11.065Z,8.67
2022-10-27T18:40:59.790Z,8.37
2022-10-27T18:43:49.148Z,7.80
2022-10-27T18:46:38.755Z,8.77
2022-10-27T18:49:46.837Z,9.90
2022-10-27T18:52:37.450Z,11.57
2022-10-27T18:55:25.979Z,10.43
2022-10-27T18:58:14.857Z,8.80
2022-10-27T19:01:04.055Z,9.90
2022-10-27T19:03:54.909Z,10.10
2022-10-27T19:06:46.641Z,11.40
2022-10-27T19:09:37.248Z,9.97
2022-10-27T19:12:27.606Z,12.20
2022-10-27T19:15:16.468Z,9.70
2022-10-27T19:18:06.519Z,10.00
2022-10-27T19:20:59.308Z,9.43
2022-10-27T19:23:55.201Z,8.87
2022-10-27T19:26:46.659Z,8.60
2022-10-27T19:29:35.551Z,9.67
2022-10-27T19:32:27.716Z,8.50
2022-10-27T19:35:23.571Z,9.43
2022-10-27T19:38:12.097Z,9.10
2022-10-27T19:41:01.854Z,10.40
2022-10-27T19:44:01.272Z,9.00
2022-10-27T19:47:27.562Z,10.10
2022-10-27T19:50:45.071Z,10.07
2022-10-27T19:53:33.689Z,9.70
2022-10-27T19:56:25.914Z,10.37
